createdAt,value
2023-04-17T00:04:46.470Z,28.52
2023-04-17T00:09:48.880Z,31.15
2023-04-17T00:14:50.448Z,29.80
2023-04-17T00:19:52.049Z,29.20
2023-04-17T00:24:53.606Z,26.55
2023-04-17T00:29:55.207Z,28.77
2023-04-17T00:34:56.715Z,32.72
2023-04-17T00:39:58.269Z,27.80
2023-04-17T00:44:59.857Z,29.42
2023-04-17T00:50:02.678Z,27.70
2023-04-17T00:55:04.685Z,26.35
2023-04-17T01:00:09.394Z,26.60
2023-04-17T01:05:11.091Z,26.00
2023-04-17T01:10:12.719Z,26.00
2023-04-17T01:15:14.819Z,28.30
2023-04-17T01:20:16.491Z,30.13
2023-04-17T01:25:19.134Z,29.95
2023-04-17T01:30:21.095Z,28.60
2023-04-17T01:35:42.902Z,27.08
2023-04-17T01:40:45.379Z,32.47
2023-04-17T01:45:47.060Z,31.67
2023-04-17T01:50:48.660Z,33.00
2023-04-17T01:55:50.239Z,29.98
2023-04-17T02:00:52.055Z,30.90
2023-04-17T02:05:53.741Z,31.88
2023-04-17T02:10:56.037Z,29.52
2023-04-17T02:15:57.759Z,31.25
2023-04-17T02:21:03.748Z,30.65
2023-04-17T02:26:05.803Z,30.23
2023-04-17T02:31:08.719Z,29.55
2023-04-17T02:36:10.562Z,28.73
2023-04-17T02:41:15.664Z,30.63
2023-04-17T02:46:18.266Z,27.27
2023-04-17T02:51:19.923Z,29.45
2023-04-17T02:56:21.727Z,27.92
2023-04-17T03:01:23.548Z,29.63
2023-04-17T03:06:26.609Z,27.92
2023-04-17T03:11:28.406Z,27.05
2023-04-17T03:16:30.135Z,24.55
2023-04-17T03:21:34.628Z,27.88
2023-04-17T03:26:36.683Z,26.55
2023-04-17T03:31:42.683Z,25.95
2023-04-17T03:36:44.637Z,25.35
2023-04-17T03:41:46.479Z,24.67
2023-04-17T03:46:48.189Z,24.15
2023-04-17T03:51:49.885Z,26.95
2023-04-17T03:56:55.869Z,24.38
2023-04-17T04:01:58.472Z,24.23
2023-04-17T04:07:02.022Z,25.48
2023-04-17T04:12:04.176Z,24.15
2023-04-17T04:17:11.788Z,26.30
2023-04-17T04:22:14.449Z,24.45
2023-04-17T04:27:22.796Z,23.38
2023-04-17T04:32:27.818Z,24.13
2023-04-17T04:37:30.211Z,23.95
2023-04-17T04:42:35.843Z,24.48
2023-04-17T04:47:47.698Z,26.58
2023-04-17T04:52:49.399Z,24.55
2023-04-17T04:58:08.641Z,25.23
2023-04-17T05:03:12.998Z,24.27
2023-04-17T05:08:15.509Z,24.00
2023-04-17T05:13:22.951Z,24.52
2023-04-17T05:18:27.757Z,25.80
2023-04-17T05:23:34.983Z,24.65
2023-04-17T05:28:36.658Z,24.02
2023-04-17T05:33:38.474Z,25.40
2023-04-17T05:38:41.072Z,24.48
2023-04-17T05:43:44.903Z,24.08
2023-04-17T05:48:46.813Z,24.20
2023-04-17T05:53:48.938Z,26.15
2023-04-17T05:58:50.733Z,22.60
2023-04-17T06:03:53.505Z,23.52
2023-04-17T06:08:59.174Z,25.63
2023-04-17T06:14:01.696Z,24.33
2023-04-17T06:19:03.508Z,23.95
2023-04-17T06:24:07.636Z,24.10
2023-04-17T06:29:09.438Z,24.92
2023-04-17T06:34:12.235Z,23.40
2023-04-17T06:39:17.624Z,22.52
2023-04-17T06:44:19.532Z,22.70
2023-04-17T06:49:22.417Z,23.70
2023-04-17T06:54:25.657Z,22.27
2023-04-17T06:59:27.230Z,21.60
2023-04-17T07:04:30.846Z,21.58
2023-04-17T07:09:32.479Z,21.98
2023-04-17T07:14:35.321Z,22.67
2023-04-17T07:19:37.517Z,21.77
2023-04-17T07:24:46.404Z,20.87
2023-04-17T07:29:54.309Z,21.63
2023-04-17T07:34:55.904Z,22.38
2023-04-17T07:39:57.432Z,20.85
2023-04-17T07:44:58.977Z,22.10
2023-04-17T07:50:00.522Z,19.70
2023-04-17T07:55:02.144Z,20.33
2023-04-17T08:00:07.071Z,19.42
2023-04-17T08:05:14.675Z,20.67
2023-04-17T08:10:16.510Z,20.08
2023-04-17T08:15:18.287Z,19.75
2023-04-17T08:20:19.998Z,19.20
2023-04-17T08:25:21.575Z,18.95
2023-04-17T08:30:23.985Z,18.45
2023-04-17T08:35:27.251Z,17.70
2023-04-17T08:40:29.250Z,17.95
2023-04-17T08:45:34.191Z,17.65
2023-04-17T08:50:37.076Z,17.13
2023-04-17T08:55:38.662Z,17.98
2023-04-17T09:00:42.624Z,17.30
2023-04-17T09:05:46.662Z,16.88
2023-04-17T09:10:50.705Z,15.30
2023-04-17T09:16:21.509Z,14.63
2023-04-17T09:21:28.828Z,13.65
2023-04-17T09:26:33.323Z,13.43
2023-04-17T09:31:36.421Z,12.13
2023-04-17T09:36:40.070Z,12.30
2023-04-17T09:41:42.026Z,11.32
2023-04-17T09:46:47.663Z,10.68
2023-04-17T09:51:50.163Z,10.07
2023-04-17T09:56:56.060Z,10.35
2023-04-17T10:02:10.595Z,9.60
2023-04-17T10:07:18.912Z,10.90
2023-04-17T10:12:21.064Z,10.48
2023-04-17T10:17:34.296Z,10.43
2023-04-17T10:22:41.045Z,10.20
2023-04-17T10:27:46.114Z,9.82
2023-04-17T10:33:28.085Z,9.57
2023-04-17T10:38:35.009Z,9.27
2023-04-17T10:43:41.529Z,9.65
2023-04-17T10:48:52.855Z,10.63
2023-04-17T10:53:59.885Z,9.52
2023-04-17T10:59:03.683Z,9.20
2023-04-17T11:04:06.226Z,9.30
2023-04-17T11:09:09.791Z,8.65
2023-04-17T11:14:14.810Z,8.18
2023-04-17T11:19:26.346Z,8.63
2023-04-17T11:24:32.396Z,8.18
2023-04-17T11:29:33.982Z,7.50
2023-04-17T11:34:37.524Z,8.20
2023-04-17T11:39:42.276Z,7.68
2023-04-17T11:44:44.831Z,8.00
2023-04-17T11:49:47.080Z,7.15
2023-04-17T11:54:57.238Z,7.78
2023-04-17T11:59:58.813Z,7.32
2023-04-17T12:05:13.964Z,7.10
2023-04-17T12:10:15.747Z,6.68
2023-04-17T12:15:17.391Z,6.70
2023-04-17T12:20:18.924Z,6.00
2023-04-17T12:25:20.861Z,6.45
2023-04-17T12:30:23.968Z,5.53
2023-04-17T12:35:25.772Z,5.00
2023-04-17T12:40:27.381Z,4.65
2023-04-17T12:45:28.982Z,4.78
2023-04-17T12:50:30.759Z,5.75
2023-04-17T12:55:32.703Z,5.00
2023-04-17T13:00:34.428Z,5.03
2023-04-17T13:05:36.069Z,4.10
2023-04-17T13:10:37.764Z,3.90
2023-04-17T13:15:39.426Z,3.90
2023-04-17T13:20:40.972Z,4.57
2023-04-17T13:25:42.589Z,4.45
2023-04-17T13:30:44.142Z,4.13
2023-04-17T13:35:46.342Z,5.68
2023-04-17T13:40:47.910Z,5.95
2023-04-17T13:45:52.272Z,6.05
2023-04-17T13:50:55.039Z,5.85
2023-04-17T13:55:56.596Z,4.60
2023-04-17T14:00:58.124Z,5.18
2023-04-17T14:06:05.533Z,4.97
2023-04-17T14:11:07.075Z,4.78
2023-04-17T14:16:08.804Z,4.90
2023-04-17T14:21:10.432Z,5.07
2023-04-17T14:26:12.747Z,5.18
2023-04-17T14:31:14.362Z,5.30
2023-04-17T14:36:16.012Z,4.95
2023-04-17T14:41:18.081Z,5.10
2023-04-17T14:46:19.654Z,5.40
2023-04-17T14:56:23.807Z,4.63
2023-04-17T15:01:25.700Z,4.90
2023-04-17T15:06:27.522Z,5.22
2023-04-17T15:11:29.085Z,3.88
2023-04-17T15:16:30.812Z,3.67
2023-04-17T15:21:32.439Z,3.47
2023-04-17T15:26:35.518Z,3.60
2023-04-17T15:31:37.473Z,3.50
2023-04-17T15:36:39.072Z,3.72
2023-04-17T15:41:40.955Z,3.72
2023-04-17T15:46:42.633Z,3.70
2023-04-17T15:51:46.713Z,4.32
2023-04-17T15:56:48.510Z,4.32
2023-04-17T16:01:50.719Z,3.83
2023-04-17T16:06:52.297Z,3.92
2023-04-17T16:11:53.856Z,3.83
2023-04-17T16:16:55.435Z,4.18
2023-04-17T16:21:57.570Z,4.10
2023-04-17T16:27:01.160Z,3.83
2023-04-17T16:32:03.003Z,4.07
2023-04-17T16:37:04.702Z,3.83
2023-04-17T16:42:06.408Z,3.25
2023-04-17T16:47:13.432Z,4.20
2023-04-17T16:52:16.310Z,2.90
2023-04-17T16:57:18.088Z,2.70
2023-04-17T17:02:19.675Z,3.03
2023-04-17T17:07:21.244Z,3.15
2023-04-17T17:12:22.978Z,3.30
2023-04-17T17:17:24.589Z,2.97
2023-04-17T17:22:26.233Z,3.70
2023-04-17T17:27:27.893Z,3.53
2023-04-17T17:32:29.476Z,3.40
2023-04-17T17:37:31.036Z,3.33
2023-04-17T17:42:33.145Z,3.33
2023-04-17T17:47:34.785Z,3.85
2023-04-17T17:52:36.389Z,3.40
2023-04-17T17:57:48.267Z,3.60
2023-04-17T18:02:51.175Z,3.70
2023-04-17T18:07:52.925Z,3.88
2023-04-17T18:12:54.533Z,3.20
2023-04-17T18:17:56.149Z,3.70
2023-04-17T18:22:57.769Z,3.65
2023-04-17T18:27:59.335Z,2.55
2023-04-17T18:33:00.963Z,2.17
2023-04-17T18:38:02.673Z,2.17
2023-04-17T18:43:05.835Z,1.88
2023-04-17T18:48:08.631Z,1.90
2023-04-17T18:53:10.272Z,2.10
2023-04-17T18:58:11.819Z,1.90
2023-04-17T19:03:13.412Z,1.80
2023-04-17T19:08:15.072Z,1.80
2023-04-17T19:13:16.677Z,3.67
2023-04-17T19:18:18.327Z,2.13
2023-04-17T19:23:19.926Z,2.28
2023-04-17T19:28:22.397Z,2.42
2023-04-17T19:33:24.071Z,2.17
2023-04-17T19:38:26.020Z,2.90
2023-04-17T19:43:27.695Z,2.85
2023-04-17T19:48:29.499Z,2.90
2023-04-17T19:53:32.207Z,2.80
2023-04-17T19:58:34.421Z,3.50
2023-04-17T20:03:38.282Z,3.40
2023-04-17T20:08:40.101Z,3.08
2023-04-17T20:13:42.225Z,3.90
2023-04-17T20:18:45.639Z,3.88
2023-04-17T20:23:47.773Z,4.13
2023-04-17T20:28:49.416Z,4.32
2023-04-17T20:33:51.070Z,4.90
2023-04-17T20:38:52.722Z,4.82
2023-04-17T20:43:59.035Z,4.65
2023-04-17T20:49:00.657Z,4.43
2023-04-17T20:54:02.204Z,5.95
2023-04-17T20:59:03.885Z,5.50
2023-04-17T21:04:05.452Z,5.43
2023-04-17T21:09:08.691Z,6.32
2023-04-17T21:14:11.551Z,6.72
2023-04-17T21:19:14.714Z,5.90
2023-04-17T21:24:16.298Z,6.88
2023-04-17T21:29:18.997Z,6.43
2023-04-17T21:34:21.010Z,6.90
2023-04-17T21:39:22.630Z,6.95
2023-04-17T21:44:29.738Z,7.03
2023-04-17T21:49:31.343Z,7.65
2023-04-17T21:54:33.572Z,6.97
2023-04-17T21:59:35.570Z,6.95
2023-04-17T22:04:37.286Z,8.05
2023-04-17T22:09:38.924Z,8.13
2023-04-17T22:14:40.892Z,8.52
2023-04-17T22:19:42.658Z,9.55
2023-04-17T22:24:44.381Z,8.77
2023-04-17T22:29:45.940Z,9.85
2023-04-17T22:34:48.948Z,8.82
2023-04-17T22:39:50.575Z,8.40
2023-04-17T22:44:52.539Z,9.20
2023-04-17T22:49:55.154Z,9.10
2023-04-17T22:54:56.819Z,9.15
2023-04-17T22:59:58.545Z,9.43
2023-04-17T23:05:00.286Z,9.90
2023-04-17T23:10:01.971Z,9.40
2023-04-17T23:15:04.037Z,9.85
2023-04-17T23:20:06.390Z,10.10
2023-04-17T23:25:08.419Z,9.95
2023-04-17T23:30:10.473Z,11.05
2023-04-17T23:35:12.050Z,11.02
2023-04-17T23:40:13.835Z,11.07
2023-04-17T23:45:17.881Z,10.88
2023-04-17T23:50:19.547Z,11.48
2023-04-17T23:55:26.608Z,10.65
